createdAt,value
2018-10-18T00:02:18.690Z,20.73
2018-10-18T00:04:49.222Z,25.50
2018-10-18T00:07:19.785Z,22.60
2018-10-18T00:09:50.309Z,21.43
2018-10-18T00:12:20.870Z,21.80
2018-10-18T00:14:51.446Z,24.10
2018-10-18T00:17:27.264Z,23.30
2018-10-18T00:19:57.955Z,19.83
2018-10-18T00:22:28.520Z,19.13
2018-10-18T00:24:59.085Z,22.97
2018-10-18T00:27:29.593Z,21.63
2018-10-18T00:30:00.224Z,18.37
2018-10-18T00:32:33.564Z,19.50
2018-10-18T00:35:04.181Z,17.73
2018-10-18T00:37:34.771Z,19.47
2018-10-18T00:40:05.793Z,19.07
2018-10-18T00:42:36.363Z,17.87
2018-10-18T00:45:08.633Z,18.40
2018-10-18T00:47:39.255Z,21.73
2018-10-18T00:50:11.378Z,19.23
2018-10-18T00:52:41.993Z,17.73
2018-10-18T00:55:12.794Z,18.53
2018-10-18T00:57:43.410Z,17.83
2018-10-18T01:00:14.078Z,17.53
2018-10-18T01:02:44.570Z,18.40
2018-10-18T01:05:15.504Z,16.60
2018-10-18T01:07:46.110Z,18.07
2018-10-18T01:10:16.708Z,20.77
2018-10-18T01:12:47.328Z,21.43
2018-10-18T01:15:17.810Z,17.50
2018-10-18T01:17:48.342Z,18.70
2018-10-18T01:20:18.958Z,20.30
2018-10-18T01:22:49.513Z,21.87
2018-10-18T01:25:20.131Z,17.40
2018-10-18T01:27:50.762Z,18.63
2018-10-18T01:30:21.301Z,16.30
2018-10-18T01:32:51.915Z,17.20
2018-10-18T01:35:22.723Z,17.63
2018-10-18T01:37:53.344Z,17.60
2018-10-18T01:40:25.295Z,14.93
2018-10-18T01:42:55.853Z,15.40
2018-10-18T01:45:26.562Z,15.33
2018-10-18T01:47:57.135Z,17.83
2018-10-18T01:50:27.761Z,16.40
2018-10-18T01:52:58.349Z,17.40
2018-10-18T01:55:28.947Z,16.00
2018-10-18T01:57:59.536Z,15.40
2018-10-18T02:00:30.158Z,14.90
2018-10-18T02:03:00.755Z,15.00
2018-10-18T02:05:31.294Z,16.23
2018-10-18T02:08:01.958Z,15.93
2018-10-18T02:10:32.482Z,15.67
2018-10-18T02:13:03.022Z,14.27
2018-10-18T02:15:33.591Z,15.40
2018-10-18T02:18:04.230Z,14.47
2018-10-18T02:20:34.706Z,12.90
2018-10-18T02:23:05.538Z,14.73
2018-10-18T02:25:36.059Z,14.13
2018-10-18T02:28:06.962Z,13.53
2018-10-18T02:30:37.512Z,15.43
2018-10-18T02:33:08.109Z,15.60
2018-10-18T02:35:38.676Z,15.90
2018-10-18T02:38:09.371Z,17.00
2018-10-18T02:40:39.896Z,17.00
2018-10-18T02:43:10.542Z,14.83
2018-10-18T02:45:41.101Z,17.80
2018-10-18T02:48:11.658Z,14.33
2018-10-18T02:50:42.174Z,14.87
2018-10-18T02:53:12.685Z,15.13
2018-10-18T02:55:43.266Z,15.10
2018-10-18T02:58:13.762Z,15.87
2018-10-18T03:00:44.353Z,16.20
2018-10-18T03:03:14.893Z,18.50
2018-10-18T03:05:45.462Z,14.20
2018-10-18T03:08:16.072Z,15.33
2018-10-18T03:10:46.581Z,13.20
2018-10-18T03:13:17.144Z,17.40
2018-10-18T03:15:47.663Z,14.97
2018-10-18T03:18:18.321Z,16.00
2018-10-18T03:20:48.817Z,17.20
2018-10-18T03:23:19.337Z,13.00
2018-10-18T03:25:49.910Z,14.93
2018-10-18T03:28:20.435Z,13.63
2018-10-18T03:30:51.020Z,14.80
2018-10-18T03:33:21.819Z,14.90
2018-10-18T03:35:52.388Z,14.50
2018-10-18T03:38:23.010Z,13.80
2018-10-18T03:40:53.604Z,16.10
2018-10-18T03:43:24.237Z,15.83
2018-10-18T03:45:54.811Z,14.13
2018-10-18T03:48:25.417Z,15.93
2018-10-18T03:50:55.981Z,15.30
2018-10-18T03:53:26.569Z,15.93
2018-10-18T03:55:57.142Z,15.47
2018-10-18T03:58:27.714Z,15.57
2018-10-18T04:00:58.269Z,15.20
2018-10-18T04:03:28.783Z,15.70
2018-10-18T04:05:59.401Z,18.40
2018-10-18T04:08:29.888Z,16.23
2018-10-18T04:11:00.479Z,16.57
2018-10-18T04:13:31.077Z,16.30
2018-10-18T04:16:01.629Z,19.10
2018-10-18T04:18:32.257Z,16.87
2018-10-18T04:21:02.797Z,15.03
2018-10-18T04:23:34.402Z,19.07
2018-10-18T04:26:05.395Z,18.47
2018-10-18T04:28:35.949Z,16.23
2018-10-18T04:31:06.591Z,25.40
2018-10-18T04:33:37.139Z,15.13
2018-10-18T04:36:07.730Z,22.10
2018-10-18T04:38:38.339Z,17.20
2018-10-18T04:41:08.892Z,19.13
2018-10-18T04:43:39.433Z,66.93
2018-10-18T04:46:09.953Z,91.67
2018-10-18T04:48:40.560Z,55.83
2018-10-18T04:51:11.158Z,80.50
2018-10-18T04:53:41.760Z,34.73
2018-10-18T04:56:12.305Z,22.90
2018-10-18T04:58:42.854Z,18.30
2018-10-18T05:01:13.492Z,17.07
2018-10-18T05:03:44.038Z,15.27
2018-10-18T05:06:14.620Z,16.73
2018-10-18T05:08:45.173Z,18.87
2018-10-18T05:11:15.836Z,17.67
2018-10-18T05:13:46.384Z,23.87
2018-10-18T05:16:16.986Z,17.83
2018-10-18T05:18:47.500Z,20.60
2018-10-18T05:21:18.066Z,16.53
2018-10-18T05:23:48.663Z,16.53
2018-10-18T05:26:19.292Z,22.60
2018-10-18T05:28:49.812Z,18.47
2018-10-18T05:31:20.432Z,51.97
2018-10-18T05:33:50.959Z,105.17
2018-10-18T05:36:21.537Z,36.63
2018-10-18T05:38:52.045Z,22.73
2018-10-18T05:41:22.644Z,22.90
2018-10-18T05:43:53.199Z,24.07
2018-10-18T05:46:23.825Z,26.70
2018-10-18T05:48:54.436Z,28.50
2018-10-18T05:51:25.016Z,28.70
2018-10-18T05:53:55.776Z,25.10
2018-10-18T05:56:26.262Z,22.60
2018-10-18T05:58:56.905Z,23.27
2018-10-18T06:01:27.519Z,18.30
2018-10-18T06:03:58.124Z,22.20
2018-10-18T06:06:28.714Z,21.57
2018-10-18T06:08:59.329Z,23.90
2018-10-18T06:11:31.588Z,22.50
2018-10-18T06:14:02.192Z,22.57
2018-10-18T06:16:32.765Z,81.60
2018-10-18T06:19:03.446Z,120.03
2018-10-18T06:21:34.128Z,44.00
2018-10-18T06:24:04.809Z,25.60
2018-10-18T06:26:35.426Z,24.30
2018-10-18T06:29:06.403Z,18.63
2018-10-18T06:31:36.961Z,20.00
2018-10-18T06:34:07.595Z,20.13
2018-10-18T06:36:38.206Z,50.60
2018-10-18T06:39:11.259Z,116.60
2018-10-18T06:41:42.166Z,30.80
2018-10-18T06:44:12.753Z,19.30
2018-10-18T06:46:43.420Z,18.87
2018-10-18T06:49:14.081Z,20.73
2018-10-18T06:51:44.786Z,19.33
2018-10-18T06:54:15.809Z,22.33
2018-10-18T06:56:46.357Z,25.83
2018-10-18T06:59:17.945Z,21.23
2018-10-18T07:01:48.689Z,98.63
2018-10-18T07:04:19.312Z,51.87
2018-10-18T07:06:49.882Z,27.10
2018-10-18T07:09:20.521Z,21.37
2018-10-18T07:11:51.170Z,20.00
2018-10-18T07:14:21.818Z,21.20
2018-10-18T07:16:52.450Z,21.80
2018-10-18T07:19:23.126Z,23.17
2018-10-18T07:21:53.736Z,22.17
2018-10-18T07:24:24.346Z,23.77
2018-10-18T07:26:55.006Z,23.23
2018-10-18T07:29:25.641Z,22.53
2018-10-18T07:31:57.654Z,23.50
2018-10-18T07:34:28.249Z,21.50
2018-10-18T07:36:58.944Z,24.63
2018-10-18T07:39:29.986Z,26.03
2018-10-18T07:42:00.737Z,21.70
2018-10-18T07:44:31.330Z,19.90
2018-10-18T07:47:02.055Z,20.23
2018-10-18T07:49:33.355Z,24.90
2018-10-18T07:52:04.063Z,29.93
2018-10-18T07:54:34.669Z,25.43
2018-10-18T07:57:05.496Z,20.90
2018-10-18T07:59:36.164Z,22.03
2018-10-18T08:02:06.845Z,21.10
2018-10-18T08:04:37.512Z,17.60
2018-10-18T08:07:08.264Z,17.90
2018-10-18T08:09:38.824Z,22.30
2018-10-18T08:12:09.471Z,20.23
2018-10-18T08:14:40.074Z,17.63
2018-10-18T08:17:10.756Z,17.70
2018-10-18T08:19:41.337Z,17.27
2018-10-18T08:22:12.200Z,18.33
2018-10-18T08:24:42.799Z,17.70
2018-10-18T08:27:13.469Z,21.20
2018-10-18T08:29:44.154Z,20.00
2018-10-18T08:32:14.808Z,16.80
2018-10-18T08:34:45.454Z,16.13
2018-10-18T08:37:16.136Z,22.00
2018-10-18T08:39:46.690Z,16.00
2018-10-18T08:42:17.310Z,17.37
2018-10-18T08:44:47.937Z,22.07
2018-10-18T08:47:18.542Z,19.33
2018-10-18T08:49:49.273Z,19.03
2018-10-18T08:52:19.923Z,22.10
2018-10-18T08:54:50.545Z,17.57
2018-10-18T08:57:21.145Z,21.37
2018-10-18T08:59:51.778Z,18.63
2018-10-18T09:02:22.381Z,19.77
2018-10-18T09:04:52.994Z,21.20
2018-10-18T09:07:23.585Z,19.50
2018-10-18T09:09:54.199Z,17.70
2018-10-18T09:12:24.900Z,18.57
2018-10-18T09:14:55.557Z,22.53
2018-10-18T09:17:26.303Z,16.40
2018-10-18T09:19:56.972Z,16.97
2018-10-18T09:22:27.702Z,18.03
2018-10-18T09:24:58.360Z,17.40
2018-10-18T09:27:29.092Z,17.40
2018-10-18T09:29:59.829Z,17.40
2018-10-18T09:32:30.517Z,16.33
2018-10-18T09:35:01.112Z,15.37
2018-10-18T09:37:31.733Z,15.73
2018-10-18T09:40:02.365Z,23.13
2018-10-18T09:42:32.990Z,29.17
2018-10-18T09:45:03.748Z,26.27
2018-10-18T09:47:34.291Z,22.10
2018-10-18T09:50:04.996Z,20.30
2018-10-18T09:52:35.600Z,20.83
2018-10-18T09:55:07.790Z,17.67
2018-10-18T09:57:38.337Z,16.60
2018-10-18T10:00:13.426Z,15.80
2018-10-18T10:02:51.007Z,15.23
2018-10-18T10:05:21.702Z,14.90
2018-10-18T10:07:52.429Z,13.97
2018-10-18T10:10:23.154Z,14.30
2018-10-18T10:12:53.816Z,18.30
2018-10-18T10:15:24.563Z,20.97
2018-10-18T10:17:55.261Z,19.37
2018-10-18T10:20:25.967Z,21.80
2018-10-18T10:22:56.713Z,16.50
2018-10-18T10:25:27.756Z,15.23
2018-10-18T10:27:58.610Z,18.20
2018-10-18T10:30:29.344Z,14.53
2018-10-18T10:32:59.940Z,15.20
2018-10-18T10:35:30.674Z,17.37
2018-10-18T10:38:01.286Z,20.83
2018-10-18T10:40:32.033Z,16.53
2018-10-18T10:43:02.737Z,19.67
2018-10-18T10:45:33.353Z,19.67
2018-10-18T10:48:04.184Z,19.60
2018-10-18T10:50:34.737Z,17.27
2018-10-18T10:53:05.524Z,23.27
2018-10-18T10:55:36.162Z,20.57
2018-10-18T10:58:07.329Z,18.57
2018-10-18T11:01:17.126Z,23.73
2018-10-18T11:03:48.343Z,20.10
2018-10-18T11:06:19.268Z,18.53
2018-10-18T11:08:49.894Z,18.87
2018-10-18T11:11:21.344Z,18.87
2018-10-18T11:13:52.095Z,19.50
2018-10-18T11:16:23.117Z,19.13
2018-10-18T11:18:53.894Z,19.50
2018-10-18T11:21:24.598Z,18.50
2018-10-18T11:23:55.366Z,22.90
2018-10-18T11:26:26.037Z,24.03
2018-10-18T11:28:56.709Z,24.53
2018-10-18T11:31:27.398Z,26.57
2018-10-18T11:33:58.046Z,20.60
2018-10-18T11:36:28.747Z,23.13
2018-10-18T11:38:59.366Z,29.17
2018-10-18T11:41:30.714Z,19.80
2018-10-18T11:44:01.436Z,23.20
2018-10-18T11:46:32.116Z,28.10
2018-10-18T11:49:02.785Z,27.70
2018-10-18T11:51:33.540Z,24.80
2018-10-18T11:54:04.218Z,21.93
2018-10-18T11:56:34.897Z,20.77
2018-10-18T11:59:06.365Z,19.47
2018-10-18T12:01:37.058Z,20.83
2018-10-18T12:04:07.722Z,20.00
2018-10-18T12:06:38.439Z,21.80
2018-10-18T12:09:11.582Z,19.60
2018-10-18T12:11:42.243Z,24.90
2018-10-18T12:14:12.961Z,20.70
2018-10-18T12:16:43.626Z,21.90
2018-10-18T12:19:14.556Z,20.47
2018-10-18T12:21:45.255Z,20.97
2018-10-18T12:24:15.935Z,25.30
2018-10-18T12:26:46.652Z,22.87
2018-10-18T12:29:17.404Z,19.77
2018-10-18T12:31:47.966Z,20.37
2018-10-18T12:34:18.662Z,22.80
2018-10-18T12:36:49.313Z,21.30
2018-10-18T12:39:19.961Z,22.33
2018-10-18T12:41:50.344Z,21.17
2018-10-18T12:44:20.733Z,21.90
2018-10-18T12:46:51.101Z,21.03
2018-10-18T12:49:21.450Z,23.40
2018-10-18T12:51:51.805Z,20.60
2018-10-18T12:54:22.157Z,19.50
2018-10-18T12:56:52.498Z,21.17
2018-10-18T12:59:23.193Z,17.90
2018-10-18T13:01:53.547Z,16.37
2018-10-18T13:04:23.948Z,21.77
2018-10-18T13:06:54.343Z,16.97
2018-10-18T13:09:24.719Z,18.40
2018-10-18T13:11:55.126Z,19.33
2018-10-18T13:14:25.529Z,17.20
2018-10-18T13:16:55.860Z,18.13
2018-10-18T13:19:26.554Z,16.77
2018-10-18T13:21:56.879Z,15.83
2018-10-18T13:24:27.257Z,17.43
2018-10-18T13:26:57.609Z,17.83
2018-10-18T13:29:28.025Z,17.57
2018-10-18T13:31:58.400Z,16.40
2018-10-18T13:34:28.712Z,16.43
2018-10-18T13:36:59.008Z,19.27
2018-10-18T13:39:29.339Z,15.80
2018-10-18T13:41:59.642Z,14.73
2018-10-18T13:44:29.960Z,15.70
2018-10-18T13:47:00.329Z,16.23
2018-10-18T13:49:30.694Z,17.00
2018-10-18T13:52:01.036Z,18.00
2018-10-18T13:54:31.593Z,16.63
2018-10-18T13:57:01.901Z,16.27
2018-10-18T13:59:49.188Z,20.43
2018-10-18T14:02:20.418Z,15.43
2018-10-18T14:04:50.682Z,16.93
2018-10-18T14:07:21.012Z,16.93
2018-10-18T14:09:51.326Z,16.90
2018-10-18T14:12:21.651Z,16.70
2018-10-18T14:14:51.983Z,19.10
2018-10-18T14:17:22.427Z,14.47
2018-10-18T14:19:52.748Z,16.13
2018-10-18T14:22:23.013Z,14.50
2018-10-18T14:24:53.436Z,15.77
2018-10-18T14:27:23.758Z,15.90
2018-10-18T14:29:54.128Z,17.07
2018-10-18T14:32:24.422Z,16.50
2018-10-18T14:34:54.769Z,17.97
2018-10-18T14:37:25.105Z,16.53
2018-10-18T14:39:55.428Z,17.30
2018-10-18T14:42:25.778Z,17.77
2018-10-18T14:44:56.171Z,15.77
2018-10-18T14:47:26.517Z,17.07
2018-10-18T14:49:56.836Z,17.60
2018-10-18T14:52:27.251Z,18.53
2018-10-18T14:54:57.557Z,17.27
2018-10-18T14:57:27.940Z,18.13
2018-10-18T14:59:58.289Z,20.03
2018-10-18T15:02:28.718Z,17.60
2018-10-18T15:04:59.205Z,24.13
2018-10-18T15:07:29.518Z,32.50
2018-10-18T15:09:59.910Z,62.10
2018-10-18T15:12:30.336Z,89.70
2018-10-18T15:15:00.671Z,105.07
2018-10-18T15:17:31.572Z,99.97
2018-10-18T15:20:01.990Z,92.83
2018-10-18T15:22:32.857Z,157.93
2018-10-18T15:25:04.484Z,113.53
2018-10-18T15:27:34.871Z,110.83
2018-10-18T15:30:06.357Z,97.13
2018-10-18T15:32:36.910Z,103.93
2018-10-18T15:35:09.085Z,88.87
2018-10-18T15:37:39.713Z,95.80
2018-10-18T15:40:10.520Z,93.57
2018-10-18T15:42:40.884Z,94.17
2018-10-18T15:45:11.343Z,70.77
2018-10-18T15:47:41.688Z,80.43
2018-10-18T15:50:12.004Z,74.50
2018-10-18T15:52:42.378Z,76.40
2018-10-18T15:55:12.719Z,87.60
2018-10-18T15:57:43.047Z,77.50
2018-10-18T16:00:13.627Z,121.50
2018-10-18T16:02:43.946Z,106.53
2018-10-18T16:05:14.390Z,74.80
2018-10-18T16:07:44.682Z,64.40
2018-10-18T16:10:15.197Z,55.63
2018-10-18T16:12:45.536Z,57.17
2018-10-18T16:15:15.905Z,54.67
2018-10-18T16:17:46.459Z,54.40
2018-10-18T16:20:16.741Z,53.17
2018-10-18T16:22:47.044Z,49.27
2018-10-18T16:25:17.460Z,56.70
2018-10-18T16:27:47.872Z,50.17
2018-10-18T16:30:18.864Z,65.00
2018-10-18T16:32:49.204Z,61.03
2018-10-18T16:35:19.680Z,64.53
2018-10-18T16:37:50.048Z,56.90
2018-10-18T16:40:21.606Z,59.37
2018-10-18T16:42:52.020Z,56.50
2018-10-18T16:45:22.628Z,60.90
2018-10-18T16:47:52.973Z,63.73
2018-10-18T16:50:23.344Z,62.80
2018-10-18T16:52:53.809Z,63.60
2018-10-18T16:55:24.214Z,53.47
2018-10-18T16:57:54.660Z,54.77
2018-10-18T17:00:25.057Z,48.57
2018-10-18T17:02:55.855Z,47.27
2018-10-18T17:05:26.427Z,53.23
2018-10-18T17:07:57.018Z,42.93
2018-10-18T17:10:27.694Z,42.67
2018-10-18T17:12:58.689Z,41.47
2018-10-18T17:15:30.349Z,38.83
2018-10-18T17:18:02.204Z,44.80
2018-10-18T17:20:32.696Z,50.77
2018-10-18T17:23:02.957Z,49.60
2018-10-18T17:25:33.344Z,43.97
2018-10-18T17:28:04.717Z,45.67
2018-10-18T17:30:35.149Z,37.57
2018-10-18T17:33:05.745Z,33.27
2018-10-18T17:35:36.183Z,33.57
2018-10-18T17:38:07.030Z,40.77
2018-10-18T17:40:37.375Z,41.30
2018-10-18T17:43:07.802Z,68.77
2018-10-18T17:45:38.323Z,50.07
2018-10-18T17:48:08.802Z,35.20
2018-10-18T17:50:39.275Z,35.90
2018-10-18T17:53:09.887Z,36.07
2018-10-18T17:55:40.411Z,36.83
2018-10-18T17:58:10.871Z,33.67
2018-10-18T18:00:41.329Z,35.57
2018-10-18T18:03:11.890Z,31.73
2018-10-18T18:05:42.435Z,37.30
2018-10-18T18:08:13.077Z,31.83
2018-10-18T18:10:43.579Z,35.10
2018-10-18T18:13:14.050Z,39.07
2018-10-18T18:15:44.701Z,53.40
2018-10-18T18:18:15.338Z,112.73
2018-10-18T18:20:45.848Z,111.00
2018-10-18T18:23:16.422Z,96.17
2018-10-18T18:25:46.912Z,84.23
2018-10-18T18:28:17.311Z,64.57
2018-10-18T18:30:47.886Z,62.53
2018-10-18T18:33:18.402Z,54.30
2018-10-18T18:35:49.908Z,62.23
2018-10-18T18:38:20.867Z,58.47
2018-10-18T18:40:51.684Z,57.60
2018-10-18T18:43:22.124Z,51.93
2018-10-18T18:45:52.707Z,151.97
2018-10-18T18:48:23.241Z,153.63
2018-10-18T18:50:54.191Z,279.23
2018-10-18T18:53:24.976Z,59.67
2018-10-18T18:55:57.234Z,34.63
2018-10-18T18:58:28.009Z,32.50
2018-10-18T19:01:03.581Z,32.00
2018-10-18T19:03:34.077Z,28.57
2018-10-18T19:06:06.522Z,28.27
2018-10-18T19:08:37.350Z,27.37
2018-10-18T19:11:08.867Z,28.53
2018-10-18T19:13:39.493Z,30.47
2018-10-18T19:16:10.142Z,32.07
2018-10-18T19:18:40.817Z,31.23
2018-10-18T19:21:12.404Z,31.43
2018-10-18T19:23:42.892Z,34.00
2018-10-18T19:26:15.105Z,25.33
2018-10-18T19:28:45.621Z,25.23
2018-10-18T19:31:16.063Z,25.30
2018-10-18T19:33:46.613Z,31.40
2018-10-18T19:36:17.125Z,27.70
2018-10-18T19:38:47.585Z,26.23
2018-10-18T19:41:18.053Z,29.47
2018-10-18T19:43:48.537Z,29.10
2018-10-18T19:46:19.169Z,27.97
2018-10-18T19:48:49.539Z,30.57
2018-10-18T19:51:20.025Z,26.73
2018-10-18T19:53:50.599Z,27.50
2018-10-18T19:56:21.072Z,26.10
2018-10-18T19:58:51.578Z,26.77
2018-10-18T20:01:22.021Z,28.20
2018-10-18T20:03:52.596Z,28.23
2018-10-18T20:06:23.051Z,28.87
2018-10-18T20:08:53.530Z,31.67
2018-10-18T20:11:24.527Z,38.47
2018-10-18T20:13:55.032Z,34.67
2018-10-18T20:16:25.464Z,172.23
2018-10-18T20:18:55.943Z,40.43
2018-10-18T20:21:26.470Z,29.67
2018-10-18T20:23:56.999Z,30.67
2018-10-18T20:26:27.643Z,28.17
2018-10-18T20:28:57.872Z,29.93
2018-10-18T20:31:28.293Z,27.93
2018-10-18T20:33:58.699Z,28.93
2018-10-18T20:36:29.144Z,29.53
2018-10-18T20:38:59.627Z,28.50
2018-10-18T20:41:29.945Z,27.17
2018-10-18T20:44:00.261Z,26.43
2018-10-18T20:46:30.617Z,25.97
2018-10-18T20:49:00.921Z,29.60
2018-10-18T20:51:32.114Z,27.80
2018-10-18T20:54:02.483Z,35.97
2018-10-18T20:56:32.710Z,29.23
2018-10-18T20:59:03.101Z,27.70
2018-10-18T21:01:33.406Z,29.60
2018-10-18T21:04:03.705Z,28.80
2018-10-18T21:06:34.150Z,27.20
2018-10-18T21:09:05.506Z,31.70
2018-10-18T21:11:35.755Z,27.80
2018-10-18T21:14:06.445Z,24.87
2018-10-18T21:16:36.777Z,24.87
2018-10-18T21:19:07.121Z,27.63
2018-10-18T21:21:37.477Z,31.53
2018-10-18T21:24:07.722Z,27.97
2018-10-18T21:26:38.189Z,26.70
2018-10-18T21:29:08.626Z,25.17
2018-10-18T21:31:38.818Z,26.87
2018-10-18T21:34:09.162Z,24.93
2018-10-18T21:36:39.429Z,23.83
2018-10-18T21:39:09.881Z,31.00
2018-10-18T21:41:40.241Z,27.30
2018-10-18T21:44:10.581Z,34.20
2018-10-18T21:46:40.888Z,31.60
2018-10-18T21:49:11.209Z,26.23
2018-10-18T21:51:41.690Z,31.37
2018-10-18T21:54:12.009Z,37.50
2018-10-18T21:56:42.462Z,35.50
2018-10-18T21:59:13.138Z,31.60
2018-10-18T22:01:43.496Z,26.70
2018-10-18T22:04:13.862Z,28.20
2018-10-18T22:06:44.389Z,26.80
2018-10-18T22:09:14.446Z,31.73
2018-10-18T22:11:45.038Z,27.60
2018-10-18T22:14:15.948Z,28.50
2018-10-18T22:16:46.500Z,29.87
2018-10-18T22:19:16.822Z,32.40
2018-10-18T22:21:47.104Z,34.93
2018-10-18T22:24:17.393Z,31.03
2018-10-18T22:26:47.711Z,31.07
2018-10-18T22:29:18.102Z,34.63
2018-10-18T22:31:48.347Z,33.97
2018-10-18T22:34:18.638Z,32.83
2018-10-18T22:36:48.950Z,31.43
2018-10-18T22:39:19.252Z,37.80
2018-10-18T22:41:49.580Z,29.83
2018-10-18T22:44:19.967Z,31.40
2018-10-18T22:46:50.311Z,31.37
2018-10-18T22:49:20.607Z,33.27
2018-10-18T22:51:50.914Z,31.97
2018-10-18T22:54:21.257Z,32.10
2018-10-18T22:56:51.663Z,32.90
2018-10-18T22:59:22.033Z,32.27
2018-10-18T23:01:53.334Z,33.10
2018-10-18T23:04:23.703Z,30.77
2018-10-18T23:06:54.044Z,31.80
2018-10-18T23:09:24.390Z,31.80
2018-10-18T23:11:54.727Z,35.00
2018-10-18T23:14:25.005Z,33.43
2018-10-18T23:16:55.292Z,35.33
2018-10-18T23:19:25.604Z,33.57
2018-10-18T23:21:55.948Z,31.93
2018-10-18T23:24:26.278Z,28.70
2018-10-18T23:26:56.659Z,32.43
2018-10-18T23:29:26.986Z,29.67
2018-10-18T23:31:57.397Z,31.03
2018-10-18T23:34:27.760Z,31.90
2018-10-18T23:36:58.159Z,33.20
2018-10-18T23:39:28.531Z,32.50
2018-10-18T23:41:58.884Z,32.80
2018-10-18T23:44:29.298Z,38.80
2018-10-18T23:46:59.663Z,31.50
2018-10-18T23:49:30.002Z,31.13
2018-10-18T23:52:00.307Z,39.50
2018-10-18T23:54:30.655Z,37.67
2018-10-18T23:57:00.987Z,34.27
2018-10-18T23:59:31.282Z,34.53
